createdAt,value
2018-12-01T00:02:17.444Z,51.83
2018-12-01T00:04:45.674Z,48.80
2018-12-01T00:07:13.898Z,50.58
2018-12-01T00:09:42.612Z,48.30
2018-12-01T00:12:10.932Z,53.42
2018-12-01T00:14:39.351Z,49.80
2018-12-01T00:17:07.772Z,55.50
2018-12-01T00:19:36.136Z,47.10
2018-12-01T00:22:04.457Z,46.42
2018-12-01T00:24:32.570Z,49.35
2018-12-01T00:27:00.796Z,45.90
2018-12-01T00:29:29.152Z,51.48
2018-12-01T00:31:58.042Z,54.30
2018-12-01T00:34:26.158Z,52.60
2018-12-01T00:36:54.319Z,52.00
2018-12-01T00:39:22.625Z,49.35
2018-12-01T00:41:50.745Z,48.73
2018-12-01T00:44:19.042Z,48.45
2018-12-01T00:46:47.360Z,49.58
2018-12-01T00:49:15.613Z,50.92
2018-12-01T00:51:44.367Z,51.28
2018-12-01T00:54:12.574Z,48.98
2018-12-01T00:56:40.755Z,46.42
2018-12-01T00:59:09.074Z,48.78
2018-12-01T01:01:37.194Z,54.88
2018-12-01T01:04:05.554Z,49.40
2018-12-01T01:06:33.684Z,51.88
2018-12-01T01:09:02.057Z,55.30
2018-12-01T01:11:30.388Z,58.58
2018-12-01T01:13:58.609Z,48.90
2018-12-01T01:16:26.784Z,52.13
2018-12-01T01:18:54.955Z,52.38
2018-12-01T01:21:23.063Z,51.73
2018-12-01T01:23:51.278Z,51.58
2018-12-01T01:26:19.550Z,55.40
2018-12-01T01:28:47.685Z,50.63
2018-12-01T01:31:15.935Z,49.93
2018-12-01T01:33:44.173Z,48.50
2018-12-01T01:36:12.400Z,49.77
2018-12-01T01:38:40.503Z,54.15
2018-12-01T01:41:08.931Z,47.13
2018-12-01T01:43:37.534Z,51.23
2018-12-01T01:46:05.991Z,47.93
2018-12-01T01:48:34.120Z,44.25
2018-12-01T01:51:02.351Z,55.40
2018-12-01T01:53:30.652Z,49.18
2018-12-01T01:55:59.008Z,47.35
2018-12-01T01:58:27.257Z,46.30
2018-12-01T02:00:55.444Z,47.75
2018-12-01T02:03:23.594Z,48.80
2018-12-01T02:05:58.356Z,51.13
2018-12-01T02:08:26.698Z,51.65
2018-12-01T02:10:55.023Z,48.85
2018-12-01T02:13:23.302Z,45.20
2018-12-01T02:15:51.508Z,56.58
2018-12-01T02:18:19.656Z,47.20
2018-12-01T02:20:47.853Z,56.25
2018-12-01T02:23:16.016Z,61.37
2018-12-01T02:25:44.216Z,50.80
2018-12-01T02:28:12.360Z,51.53
2018-12-01T02:30:40.582Z,52.20
2018-12-01T02:33:08.771Z,57.53
2018-12-01T02:35:36.934Z,58.70
2018-12-01T02:38:05.102Z,64.95
2018-12-01T02:40:33.427Z,58.00
2018-12-01T02:43:01.718Z,59.08
2018-12-01T02:45:41.509Z,57.05
2018-12-01T02:48:09.894Z,59.08
2018-12-01T02:50:38.228Z,57.08
2018-12-01T02:53:06.732Z,55.85
2018-12-01T02:55:35.077Z,62.83
2018-12-01T02:58:03.229Z,63.17
2018-12-01T03:00:31.369Z,61.08
2018-12-01T03:02:59.749Z,58.68
2018-12-01T03:05:27.963Z,65.97
2018-12-01T03:07:56.146Z,66.25
2018-12-01T03:10:24.342Z,63.23
2018-12-01T03:12:53.608Z,61.95
2018-12-01T03:15:21.903Z,61.55
2018-12-01T03:17:51.056Z,55.65
2018-12-01T03:20:19.406Z,63.13
2018-12-01T03:22:47.558Z,59.05
2018-12-01T03:25:21.314Z,66.35
2018-12-01T03:27:50.408Z,66.17
2018-12-01T03:30:19.638Z,63.25
2018-12-01T03:32:48.402Z,59.95
2018-12-01T03:35:16.834Z,75.12
2018-12-01T03:37:47.181Z,63.25
2018-12-01T03:40:15.886Z,57.75
2018-12-01T03:42:44.122Z,63.15
2018-12-01T03:45:13.556Z,58.73
2018-12-01T03:47:41.781Z,68.15
2018-12-01T03:50:11.238Z,71.30
2018-12-01T03:52:39.399Z,61.08
2018-12-01T03:55:19.109Z,67.15
2018-12-01T03:57:47.328Z,70.17
2018-12-01T04:00:15.495Z,73.78
2018-12-01T04:02:43.613Z,73.50
2018-12-01T04:05:11.769Z,66.92
2018-12-01T04:07:39.939Z,79.17
2018-12-01T04:10:08.083Z,66.35
2018-12-01T04:12:36.277Z,70.32
2018-12-01T04:15:04.443Z,70.25
2018-12-01T04:17:32.597Z,78.83
2018-12-01T04:20:00.693Z,76.17
2018-12-01T04:22:28.924Z,76.37
2018-12-01T04:24:57.183Z,78.97
2018-12-01T04:27:25.405Z,74.77
2018-12-01T04:29:53.587Z,77.92
2018-12-01T04:32:21.747Z,69.92
2018-12-01T04:34:49.978Z,72.22
2018-12-01T04:37:18.140Z,71.05
2018-12-01T04:39:46.303Z,73.78
2018-12-01T04:42:14.467Z,79.35
2018-12-01T04:44:42.660Z,85.22
2018-12-01T04:47:10.813Z,82.88
2018-12-01T04:49:38.994Z,86.28
2018-12-01T04:52:07.142Z,79.12
2018-12-01T04:54:35.271Z,84.45
2018-12-01T04:57:03.507Z,85.35
2018-12-01T04:59:31.673Z,82.92
2018-12-01T05:01:59.837Z,87.45
2018-12-01T05:04:27.985Z,85.00
2018-12-01T05:06:56.145Z,76.95
2018-12-01T05:09:24.350Z,91.82
2018-12-01T05:11:52.513Z,81.65
2018-12-01T05:14:20.688Z,86.05
2018-12-01T05:16:48.916Z,90.38
2018-12-01T05:19:17.037Z,81.22
2018-12-01T05:21:45.217Z,84.05
2018-12-01T05:24:13.433Z,91.72
2018-12-01T05:26:41.621Z,85.12
2018-12-01T05:29:09.858Z,80.87
2018-12-01T05:31:37.973Z,81.57
2018-12-01T05:34:06.119Z,97.40
2018-12-01T05:36:34.283Z,88.50
2018-12-01T05:39:02.545Z,78.90
2018-12-01T05:41:30.807Z,77.72
2018-12-01T05:43:58.939Z,77.25
2018-12-01T05:46:27.098Z,85.53
2018-12-01T05:48:55.293Z,82.02
2018-12-01T05:51:23.423Z,86.12
2018-12-01T05:53:51.713Z,87.90
2018-12-01T05:56:20.056Z,77.65
2018-12-01T05:58:48.355Z,81.80
2018-12-01T06:01:16.701Z,73.17
2018-12-01T06:03:44.897Z,79.62
2018-12-01T06:06:13.075Z,81.08
2018-12-01T06:08:41.371Z,70.28
2018-12-01T06:11:09.657Z,75.42
2018-12-01T06:13:37.841Z,71.53
2018-12-01T06:16:06.416Z,80.32
2018-12-01T06:18:34.575Z,81.32
2018-12-01T06:21:02.857Z,79.65
2018-12-01T06:23:31.084Z,85.87
2018-12-01T06:25:59.303Z,76.70
2018-12-01T06:28:27.459Z,75.17
2018-12-01T06:30:55.821Z,88.10
2018-12-01T06:33:24.133Z,80.07
2018-12-01T06:35:52.287Z,90.15
2018-12-01T06:38:20.462Z,88.52
2018-12-01T06:40:48.605Z,71.22
2018-12-01T06:43:16.787Z,108.20
2018-12-01T06:45:45.037Z,88.47
2018-12-01T06:48:13.247Z,81.30
2018-12-01T06:50:41.421Z,79.53
2018-12-01T06:53:09.583Z,78.35
2018-12-01T06:55:37.727Z,80.30
2018-12-01T06:58:05.999Z,76.17
2018-12-01T07:00:34.230Z,78.78
2018-12-01T07:03:02.459Z,81.82
2018-12-01T07:05:30.695Z,86.42
2018-12-01T07:07:58.898Z,82.20
2018-12-01T07:10:27.042Z,82.75
2018-12-01T07:12:56.925Z,80.95
2018-12-01T07:15:26.536Z,76.92
2018-12-01T07:17:54.653Z,72.50
2018-12-01T07:20:22.807Z,73.02
2018-12-01T07:22:50.950Z,79.37
2018-12-01T07:25:19.111Z,79.25
2018-12-01T07:27:47.345Z,69.10
2018-12-01T07:30:15.672Z,75.97
2018-12-01T07:32:44.629Z,69.97
2018-12-01T07:35:12.837Z,75.72
2018-12-01T07:37:41.207Z,72.12
2018-12-01T07:40:14.852Z,76.53
2018-12-01T07:42:42.988Z,65.17
2018-12-01T07:45:12.408Z,74.75
2018-12-01T07:47:40.595Z,78.57
2018-12-01T07:50:10.420Z,76.22
2018-12-01T07:52:38.602Z,70.92
2018-12-01T07:55:07.189Z,69.82
2018-12-01T07:57:35.377Z,78.42
2018-12-01T08:00:03.791Z,69.70
2018-12-01T08:02:31.926Z,65.12
2018-12-01T08:05:00.079Z,70.55
2018-12-01T08:07:28.289Z,67.40
2018-12-01T08:09:56.487Z,67.58
2018-12-01T08:12:24.662Z,62.23
2018-12-01T08:14:52.830Z,73.50
2018-12-01T08:17:20.939Z,68.92
2018-12-01T08:19:49.058Z,71.15
2018-12-01T08:22:17.204Z,78.20
2018-12-01T08:24:45.330Z,64.03
2018-12-01T08:27:13.532Z,63.68
2018-12-01T08:29:41.664Z,65.57
2018-12-01T08:32:09.858Z,63.40
2018-12-01T08:34:37.969Z,64.22
2018-12-01T08:37:06.649Z,64.92
2018-12-01T08:39:34.904Z,67.67
2018-12-01T08:42:03.068Z,64.10
2018-12-01T08:44:31.207Z,72.22
2018-12-01T08:46:59.378Z,61.88
2018-12-01T08:49:27.544Z,62.38
2018-12-01T08:51:55.721Z,55.58
2018-12-01T08:54:23.881Z,62.60
2018-12-01T08:56:52.041Z,67.50
2018-12-01T08:59:20.212Z,60.00
2018-12-01T09:01:48.380Z,71.07
2018-12-01T09:04:16.582Z,65.20
2018-12-01T09:06:44.788Z,67.00
2018-12-01T09:09:12.995Z,66.33
2018-12-01T09:11:41.302Z,63.55
2018-12-01T09:14:09.480Z,68.50
2018-12-01T09:16:37.690Z,55.40
2018-12-01T09:19:06.311Z,60.75
2018-12-01T09:21:34.570Z,60.12
2018-12-01T09:24:02.682Z,60.55
2018-12-01T09:26:30.886Z,61.53
2018-12-01T09:28:59.061Z,64.03
2018-12-01T09:31:27.330Z,70.32
2018-12-01T09:33:55.840Z,65.57
2018-12-01T09:36:24.044Z,61.02
2018-12-01T09:38:52.224Z,67.40
2018-12-01T09:41:20.609Z,56.83
2018-12-01T09:43:48.778Z,59.27
2018-12-01T09:46:16.902Z,70.17
2018-12-01T09:48:45.026Z,69.07
2018-12-01T09:51:13.267Z,66.80
2018-12-01T09:53:41.541Z,68.37
2018-12-01T09:56:09.694Z,59.67
2018-12-01T09:58:37.884Z,60.15
2018-12-01T10:01:06.040Z,60.03
2018-12-01T10:03:34.190Z,56.77
2018-12-01T10:06:02.427Z,58.68
2018-12-01T10:08:30.558Z,54.88
2018-12-01T10:10:58.749Z,54.27
2018-12-01T10:13:26.926Z,61.10
2018-12-01T10:15:55.140Z,51.45
2018-12-01T10:18:23.294Z,54.45
2018-12-01T10:20:51.411Z,55.33
2018-12-01T10:23:19.643Z,51.30
2018-12-01T10:25:47.921Z,55.52
2018-12-01T10:28:16.090Z,53.52
2018-12-01T10:30:44.259Z,52.75
2018-12-01T10:33:12.370Z,57.65
2018-12-01T10:35:40.549Z,63.92
2018-12-01T10:38:13.458Z,60.23
2018-12-01T10:40:41.635Z,53.80
2018-12-01T10:43:09.877Z,60.65
2018-12-01T10:45:38.138Z,52.48
2018-12-01T10:48:07.770Z,58.00
2018-12-01T10:50:35.932Z,55.80
2018-12-01T10:53:04.086Z,49.85
2018-12-01T10:55:33.199Z,55.00
2018-12-01T10:58:18.340Z,56.40
2018-12-01T11:00:52.949Z,57.25
2018-12-01T11:03:27.063Z,48.42
2018-12-01T11:05:56.030Z,49.67
2018-12-01T11:08:24.200Z,48.33
2018-12-01T11:10:55.184Z,50.20
2018-12-01T11:13:20.645Z,51.75
2018-12-01T11:15:55.477Z,54.48
2018-12-01T11:18:23.633Z,51.35
2018-12-01T11:20:51.852Z,49.58
2018-12-01T11:23:20.053Z,50.90
2018-12-01T11:25:48.256Z,47.50
2018-12-01T11:28:16.487Z,46.77
2018-12-01T11:30:44.646Z,43.38
2018-12-01T11:33:12.913Z,48.97
2018-12-01T11:35:41.358Z,47.93
2018-12-01T11:38:09.915Z,44.80
2018-12-01T11:40:38.273Z,49.35
2018-12-01T11:43:07.947Z,46.05
2018-12-01T11:45:36.133Z,44.33
2018-12-01T11:48:04.380Z,45.67
2018-12-01T11:50:32.669Z,46.77
2018-12-01T11:53:00.855Z,41.37
2018-12-01T11:55:29.076Z,43.33
2018-12-01T11:57:57.343Z,41.27
2018-12-01T12:00:26.465Z,46.60
2018-12-01T12:02:55.016Z,41.03
2018-12-01T12:05:23.282Z,39.23
2018-12-01T12:08:03.063Z,47.27
2018-12-01T12:10:31.204Z,41.27
2018-12-01T12:12:59.438Z,41.30
2018-12-01T12:15:27.805Z,46.63
2018-12-01T12:17:58.485Z,41.83
2018-12-01T12:20:26.733Z,43.63
2018-12-01T12:22:55.097Z,45.17
2018-12-01T12:25:23.407Z,40.50
2018-12-01T12:27:51.664Z,42.50
2018-12-01T12:30:23.415Z,37.60
2018-12-01T12:32:48.879Z,39.13
2018-12-01T12:35:17.797Z,39.13
2018-12-01T12:37:48.939Z,44.30
2018-12-01T12:40:23.124Z,42.50
2018-12-01T12:42:52.097Z,44.10
2018-12-01T12:45:20.265Z,46.03
2018-12-01T12:47:48.437Z,44.30
2018-12-01T12:50:17.503Z,40.10
2018-12-01T12:52:47.839Z,39.67
2018-12-01T12:55:21.007Z,40.90
2018-12-01T12:57:49.223Z,38.43
2018-12-01T13:00:21.543Z,41.57
2018-12-01T13:02:58.059Z,43.30
2018-12-01T13:05:29.677Z,43.47
2018-12-01T13:07:58.017Z,46.93
2018-12-01T13:10:26.693Z,46.47
2018-12-01T13:12:54.857Z,41.60
2018-12-01T13:15:23.146Z,45.87
2018-12-01T13:17:51.431Z,44.60
2018-12-01T13:20:20.622Z,41.20
2018-12-01T13:22:50.160Z,40.60
2018-12-01T13:25:18.423Z,43.80
2018-12-01T13:27:48.377Z,41.83
2018-12-01T13:30:18.051Z,43.73
2018-12-01T13:32:46.274Z,44.93
2018-12-01T13:35:14.463Z,39.80
2018-12-01T13:37:42.682Z,45.57
2018-12-01T13:40:13.716Z,44.00
2018-12-01T13:42:42.410Z,39.10
2018-12-01T13:45:17.670Z,41.43
2018-12-01T13:47:46.936Z,45.37
2018-12-01T13:50:16.827Z,43.47
2018-12-01T13:52:48.378Z,37.97
2018-12-01T13:55:16.610Z,45.50
2018-12-01T13:57:44.827Z,42.73
2018-12-01T14:00:15.229Z,45.20
2018-12-01T14:02:43.500Z,46.43
2018-12-01T14:05:12.202Z,40.53
2018-12-01T14:07:40.420Z,43.00
2018-12-01T14:10:14.550Z,42.63
2018-12-01T14:12:43.162Z,44.00
2018-12-01T14:15:12.870Z,43.83
2018-12-01T14:17:41.242Z,44.20
2018-12-01T14:20:10.753Z,46.97
2018-12-01T14:22:39.078Z,52.80
2018-12-01T14:25:08.798Z,49.27
2018-12-01T14:27:37.311Z,49.43
2018-12-01T14:30:09.972Z,50.17
2018-12-01T14:32:38.202Z,45.03
2018-12-01T14:35:10.322Z,42.60
2018-12-01T14:37:38.538Z,48.77
2018-12-01T14:40:09.912Z,49.57
2018-12-01T14:42:38.158Z,47.80
2018-12-01T14:45:09.662Z,48.87
2018-12-01T14:47:37.908Z,54.30
2018-12-01T14:50:08.450Z,53.37
2018-12-01T14:52:36.619Z,56.87
2018-12-01T14:55:06.271Z,50.13
2018-12-01T14:57:34.456Z,49.18
2018-12-01T15:00:02.745Z,47.80
2018-12-01T15:02:31.091Z,53.68
2018-12-01T15:04:59.412Z,55.20
2018-12-01T15:07:27.660Z,49.18
2018-12-01T15:09:55.830Z,58.40
2018-12-01T15:12:24.032Z,51.00
2018-12-01T15:14:52.241Z,52.83
2018-12-01T15:17:20.502Z,56.65
2018-12-01T15:19:48.788Z,51.65
2018-12-01T15:22:17.035Z,57.03
2018-12-01T15:24:45.231Z,56.80
2018-12-01T15:27:13.445Z,61.77
2018-12-01T15:29:41.639Z,61.02
2018-12-01T15:32:09.815Z,59.33
2018-12-01T15:34:37.965Z,56.18
2018-12-01T15:37:06.291Z,58.45
2018-12-01T15:39:34.650Z,60.95
2018-12-01T15:42:02.841Z,56.20
2018-12-01T15:44:31.609Z,61.95
2018-12-01T15:47:00.055Z,67.75
2018-12-01T15:49:28.286Z,55.70
2018-12-01T15:51:56.541Z,59.80
2018-12-01T15:54:24.743Z,65.17
2018-12-01T15:56:52.938Z,62.70
2018-12-01T15:59:21.085Z,61.00
2018-12-01T16:01:49.323Z,57.00
2018-12-01T16:04:17.675Z,62.23
2018-12-01T16:06:45.882Z,70.42
2018-12-01T16:09:14.055Z,57.75
2018-12-01T16:11:42.223Z,59.30
2018-12-01T16:14:10.891Z,59.75
2018-12-01T16:16:39.060Z,60.30
2018-12-01T16:19:07.279Z,58.58
2018-12-01T16:21:35.435Z,69.07
2018-12-01T16:24:03.641Z,61.77
2018-12-01T16:26:32.018Z,63.28
2018-12-01T16:29:00.199Z,66.65
2018-12-01T16:31:28.413Z,68.05
2018-12-01T16:33:56.715Z,63.48
2018-12-01T16:36:25.031Z,62.33
2018-12-01T16:38:53.433Z,61.68
2018-12-01T16:41:25.565Z,64.00
2018-12-01T16:43:53.783Z,66.80
2018-12-01T16:46:22.059Z,74.00
2018-12-01T16:48:50.280Z,71.22
2018-12-01T16:51:18.489Z,72.47
2018-12-01T16:53:46.746Z,65.17
2018-12-01T16:56:14.951Z,60.45
2018-12-01T16:58:43.224Z,58.23
2018-12-01T17:01:11.413Z,57.20
2018-12-01T17:03:39.661Z,59.10
2018-12-01T17:06:11.411Z,48.58
2018-12-01T17:08:39.527Z,52.78
2018-12-01T17:11:08.673Z,55.03
2018-12-01T17:13:37.031Z,52.15
2018-12-01T17:16:05.397Z,53.92
2018-12-01T17:18:33.587Z,64.53
2018-12-01T17:21:01.829Z,50.20
2018-12-01T17:23:30.100Z,66.00
2018-12-01T17:25:58.279Z,57.93
2018-12-01T17:28:26.496Z,69.60
2018-12-01T17:30:54.675Z,55.55
2018-12-01T17:33:22.818Z,53.02
2018-12-01T17:35:51.009Z,47.33
2018-12-01T17:38:20.403Z,43.13
2018-12-01T17:40:55.741Z,57.98
2018-12-01T17:43:28.211Z,57.88
2018-12-01T17:45:56.513Z,59.20
2018-12-01T17:48:24.726Z,59.60
2018-12-01T17:50:52.915Z,53.38
2018-12-01T17:53:21.153Z,62.20
2018-12-01T17:55:49.576Z,53.85
2018-12-01T17:58:17.741Z,56.33
2018-12-01T18:00:45.893Z,58.08
2018-12-01T18:03:14.183Z,57.38
2018-12-01T18:05:45.185Z,46.30
2018-12-01T18:08:16.174Z,53.83
2018-12-01T18:10:44.911Z,77.10
2018-12-01T18:13:13.084Z,63.68
2018-12-01T18:15:41.524Z,47.15
2018-12-01T18:18:09.686Z,51.37
2018-12-01T18:20:37.933Z,44.55
2018-12-01T18:23:07.565Z,56.20
2018-12-01T18:25:39.458Z,44.70
2018-12-01T18:28:08.657Z,52.00
2018-12-01T18:30:38.285Z,50.15
2018-12-01T18:33:12.097Z,59.13
2018-12-01T18:35:40.669Z,49.45
2018-12-01T18:38:09.905Z,52.43
2018-12-01T18:40:38.201Z,52.25
2018-12-01T18:43:07.271Z,52.17
2018-12-01T18:45:35.484Z,47.38
2018-12-01T18:48:03.659Z,48.95
2018-12-01T18:50:31.989Z,46.18
2018-12-01T18:53:01.660Z,55.63
2018-12-01T18:55:31.415Z,48.02
2018-12-01T18:58:07.304Z,46.95
2018-12-01T19:00:40.765Z,42.38
2018-12-01T19:03:08.996Z,48.38
2018-12-01T19:05:37.228Z,46.02
2018-12-01T19:08:05.498Z,44.08
2018-12-01T19:10:33.768Z,51.45
2018-12-01T19:13:01.955Z,46.68
2018-12-01T19:15:30.167Z,45.92
2018-12-01T19:17:58.355Z,41.35
2018-12-01T19:20:26.640Z,37.08
2018-12-01T19:22:54.810Z,47.27
2018-12-01T19:25:23.673Z,42.10
2018-12-01T19:27:53.021Z,45.55
2018-12-01T19:30:21.969Z,46.75
2018-12-01T19:32:57.353Z,41.18
2018-12-01T19:35:25.553Z,39.83
2018-12-01T19:37:54.610Z,43.45
2018-12-01T19:40:28.608Z,41.95
2018-12-01T19:42:53.700Z,29.72
2018-12-01T19:45:21.935Z,36.65
2018-12-01T19:47:50.259Z,33.53
2018-12-01T19:50:21.819Z,65.97
2018-12-01T19:52:49.988Z,37.67
2018-12-01T19:55:19.294Z,32.13
2018-12-01T19:57:47.571Z,34.38
2018-12-01T20:00:17.138Z,28.77
2018-12-01T20:02:45.448Z,37.00
2018-12-01T20:05:15.017Z,27.22
2018-12-01T20:07:43.410Z,34.30
2018-12-01T20:10:21.884Z,29.23
2018-12-01T20:12:53.732Z,30.20
2018-12-01T20:15:58.343Z,28.20
2018-12-01T20:18:27.743Z,26.45
2018-12-01T20:20:56.068Z,22.75
2018-12-01T20:25:56.242Z,28.38
2018-12-01T20:28:24.472Z,33.35
2018-12-01T20:30:53.193Z,27.10
2018-12-01T20:33:21.431Z,28.23
2018-12-01T20:35:54.571Z,26.68
2018-12-01T20:38:43.532Z,28.83
2018-12-01T20:41:11.773Z,38.40
2018-12-01T20:43:40.003Z,31.42
2018-12-01T20:46:08.223Z,43.00
2018-12-01T20:48:36.480Z,35.43
2018-12-01T20:51:05.203Z,31.60
2018-12-01T20:53:33.430Z,30.88
2018-12-01T20:56:01.881Z,34.25
2018-12-01T20:58:32.248Z,28.52
2018-12-01T21:01:00.425Z,28.92
2018-12-01T21:03:28.633Z,29.40
2018-12-01T21:05:56.896Z,35.45
2018-12-01T21:08:27.840Z,34.35
2018-12-01T21:10:58.338Z,30.88
2018-12-01T21:13:26.559Z,31.75
2018-12-01T21:15:54.818Z,33.23
2018-12-01T21:18:23.134Z,29.48
2018-12-01T21:20:51.400Z,23.45
2018-12-01T21:23:19.781Z,30.60
2018-12-01T21:25:48.015Z,31.17
2018-12-01T21:28:16.243Z,27.15
2018-12-01T21:30:45.591Z,30.20
2018-12-01T21:33:16.306Z,24.85
2018-12-01T21:35:44.551Z,27.05
2018-12-01T21:38:14.815Z,26.17
2018-12-01T21:40:43.583Z,29.80
2018-12-01T21:43:12.473Z,78.22
2018-12-01T21:45:40.657Z,26.93
2018-12-01T21:48:10.639Z,28.40
2018-12-01T21:50:39.733Z,29.77
2018-12-01T21:53:10.298Z,29.35
2018-12-01T21:55:38.560Z,32.03
2018-12-01T21:58:07.342Z,26.70
2018-12-01T22:00:35.572Z,33.38
2018-12-01T22:03:06.573Z,26.55
2018-12-01T22:05:38.080Z,30.75
2018-12-01T22:08:07.725Z,29.37
2018-12-01T22:10:35.898Z,33.28
2018-12-01T22:13:04.114Z,36.80
2018-12-01T22:15:32.285Z,23.67
2018-12-01T22:18:00.455Z,30.57
2018-12-01T22:20:28.622Z,31.25
2018-12-01T22:22:56.860Z,31.82
2018-12-01T22:25:24.987Z,34.48
2018-12-01T22:27:53.186Z,32.80
2018-12-01T22:30:21.823Z,31.10
2018-12-01T22:32:55.400Z,27.37
2018-12-01T22:35:24.710Z,25.48
2018-12-01T22:37:53.606Z,30.35
2018-12-01T22:40:23.127Z,27.32
2018-12-01T22:42:53.904Z,30.45
2018-12-01T22:45:22.047Z,28.40
2018-12-01T22:47:50.282Z,32.80
2018-12-01T22:50:19.603Z,28.05
2018-12-01T22:52:48.036Z,23.42
2018-12-01T22:55:17.637Z,28.95
2018-12-01T22:57:51.392Z,23.50
2018-12-01T23:00:35.709Z,33.48
2018-12-01T23:03:04.214Z,25.12
2018-12-01T23:05:32.386Z,30.80
2018-12-01T23:08:00.547Z,28.57
2018-12-01T23:10:28.743Z,28.20
2018-12-01T23:12:56.964Z,46.70
2018-12-01T23:15:25.228Z,25.08
2018-12-01T23:17:53.482Z,26.65
2018-12-01T23:20:23.017Z,28.17
2018-12-01T23:22:51.666Z,27.58
2018-12-01T23:25:19.875Z,30.80
2018-12-01T23:27:48.029Z,29.32
2018-12-01T23:30:25.134Z,25.15
2018-12-01T23:32:59.477Z,24.12
2018-12-01T23:35:27.759Z,27.22
2018-12-01T23:37:55.938Z,27.55
2018-12-01T23:40:24.083Z,26.15
2018-12-01T23:42:52.374Z,28.02
2018-12-01T23:45:21.028Z,29.67
2018-12-01T23:47:49.504Z,25.20
2018-12-01T23:50:18.813Z,25.62
2018-12-01T23:52:48.218Z,24.92
2018-12-01T23:55:16.449Z,29.42
2018-12-01T23:57:44.617Z,23.90
